createdAt,value
2023-11-23T00:00:59.775Z,102244.06
2023-11-23T00:03:29.333Z,102252.34
2023-11-23T00:05:57.125Z,102237.19
2023-11-23T00:08:24.261Z,102240.63
2023-11-23T00:10:51.330Z,102232.94
2023-11-23T00:13:18.400Z,102229.34
2023-11-23T00:15:45.494Z,102215.59
2023-11-23T00:18:15.496Z,102217.59
2023-11-23T00:20:42.737Z,102219.28
2023-11-23T00:23:09.874Z,102213.44
2023-11-23T00:25:36.922Z,102206.63
2023-11-23T00:28:04.208Z,102214.88
2023-11-23T00:30:31.296Z,102207.19
2023-11-23T00:32:59.081Z,102212.28
2023-11-23T00:35:26.499Z,102201.09
2023-11-23T00:37:54.360Z,102202.06
2023-11-23T00:40:21.512Z,102209.63
2023-11-23T00:42:48.586Z,102196.91
2023-11-23T00:45:16.548Z,102188.22
2023-11-23T00:47:43.988Z,102185.03
2023-11-23T00:50:11.091Z,102195.13
2023-11-23T00:52:38.319Z,102185.94
2023-11-23T00:55:06.047Z,102187.38
2023-11-23T00:57:33.445Z,102177.03
2023-11-23T01:00:01.505Z,102179.81
2023-11-23T01:02:29.801Z,102176.94
2023-11-23T01:04:57.206Z,102187.88
2023-11-23T01:07:24.664Z,102176.47
2023-11-23T01:09:51.840Z,102172.59
2023-11-23T01:12:18.985Z,102170.31
2023-11-23T01:14:46.462Z,102166.00
2023-11-23T01:17:13.574Z,102170.66
2023-11-23T01:19:40.662Z,102164.03
2023-11-23T01:22:07.928Z,102160.97
2023-11-23T01:24:35.355Z,102166.28
2023-11-23T01:27:02.735Z,102158.88
2023-11-23T01:29:29.893Z,102167.63
2023-11-23T01:31:57.252Z,102173.44
2023-11-23T01:34:25.234Z,102162.13
2023-11-23T01:36:52.380Z,102160.56
2023-11-23T01:39:19.709Z,102161.41
2023-11-23T01:41:46.865Z,102144.03
2023-11-23T01:44:13.910Z,102148.06
2023-11-23T01:46:41.051Z,102145.97
2023-11-23T01:49:09.148Z,102145.31
2023-11-23T01:51:36.242Z,102150.56
2023-11-23T01:54:03.459Z,102150.13
2023-11-23T01:56:31.624Z,102144.41
2023-11-23T01:59:00.333Z,102155.56
2023-11-23T02:01:27.987Z,102148.41
2023-11-23T02:03:55.992Z,102146.63
2023-11-23T02:06:23.147Z,102138.78
2023-11-23T02:08:50.596Z,102139.81
2023-11-23T02:11:17.735Z,102136.59
2023-11-23T02:13:44.974Z,102147.19
2023-11-23T02:16:12.270Z,102147.19
2023-11-23T02:18:39.565Z,102150.59
2023-11-23T02:21:08.077Z,102140.00
2023-11-23T02:23:35.692Z,102146.94
2023-11-23T02:26:02.885Z,102143.59
2023-11-23T02:28:33.469Z,102140.47
2023-11-23T02:31:00.615Z,102143.28
2023-11-23T02:33:28.260Z,102143.88
2023-11-23T02:35:55.509Z,102143.97
2023-11-23T02:38:22.701Z,102143.97
2023-11-23T02:40:50.051Z,102141.78
2023-11-23T02:43:17.198Z,102141.78
2023-11-23T02:45:44.452Z,102130.66
2023-11-23T02:48:11.668Z,102128.25
2023-11-23T02:50:38.738Z,102139.41
2023-11-23T02:53:05.852Z,102129.94
2023-11-23T02:55:33.118Z,102134.00
2023-11-23T02:58:00.305Z,102133.88
2023-11-23T03:00:28.243Z,102132.19
2023-11-23T03:02:56.293Z,102132.56
2023-11-23T03:05:24.001Z,102133.63
2023-11-23T03:07:51.235Z,102129.81
2023-11-23T03:10:18.408Z,102124.72
2023-11-23T03:12:45.438Z,102120.09
2023-11-23T03:15:12.611Z,102127.75
2023-11-23T03:17:39.836Z,102110.72
2023-11-23T03:20:07.394Z,102116.72
2023-11-23T03:22:34.496Z,102113.63
2023-11-23T03:25:01.573Z,102110.19
2023-11-23T03:27:29.506Z,102121.53
2023-11-23T03:29:56.594Z,102116.44
2023-11-23T03:32:26.273Z,102120.44
2023-11-23T03:34:53.420Z,102123.22
2023-11-23T03:37:20.516Z,102110.69
2023-11-23T03:39:48.038Z,102106.16
2023-11-23T03:42:15.348Z,102110.47
2023-11-23T03:44:42.558Z,102101.69
2023-11-23T03:47:09.601Z,102101.69
2023-11-23T03:49:36.904Z,102098.84
2023-11-23T03:52:04.211Z,102094.50
2023-11-23T03:54:31.284Z,102095.44
2023-11-23T03:56:59.786Z,102099.84
2023-11-23T03:59:27.459Z,102094.75
2023-11-23T04:01:54.946Z,102104.59
2023-11-23T04:04:22.174Z,102099.34
2023-11-23T04:06:50.155Z,102115.88
2023-11-23T04:09:19.308Z,102114.47
2023-11-23T04:11:46.571Z,102098.19
2023-11-23T04:14:13.633Z,102103.22
2023-11-23T04:16:40.793Z,102095.22
2023-11-23T04:19:07.943Z,102094.63
2023-11-23T04:21:35.036Z,102098.25
2023-11-23T04:24:02.195Z,102093.03
2023-11-23T04:26:29.384Z,102101.84
2023-11-23T04:28:56.454Z,102091.34
2023-11-23T04:31:27.273Z,102079.91
2023-11-23T04:33:55.125Z,102094.63
2023-11-23T04:36:23.451Z,102087.28
2023-11-23T04:38:50.755Z,102095.53
2023-11-23T04:41:17.956Z,102095.44
2023-11-23T04:43:45.671Z,102103.69
2023-11-23T04:46:12.892Z,102108.00
2023-11-23T04:48:40.006Z,102103.91
2023-11-23T04:51:07.270Z,102103.09
2023-11-23T04:53:34.381Z,102097.81
2023-11-23T04:56:01.836Z,102100.66
2023-11-23T04:58:29.329Z,102096.31
2023-11-23T05:00:56.416Z,102096.03
2023-11-23T05:03:23.701Z,102093.53
2023-11-23T05:05:51.015Z,102088.97
2023-11-23T05:08:18.498Z,102095.09
2023-11-23T05:10:45.557Z,102089.19
2023-11-23T05:13:13.844Z,102095.91
2023-11-23T05:15:41.203Z,102084.13
2023-11-23T05:18:08.753Z,102079.59
2023-11-23T05:20:36.217Z,102081.59
2023-11-23T05:23:03.337Z,102082.53
2023-11-23T05:25:30.394Z,102078.09
2023-11-23T05:27:57.474Z,102079.75
2023-11-23T05:30:24.999Z,102077.94
2023-11-23T05:32:52.159Z,102080.38
2023-11-23T05:35:19.653Z,102080.16
2023-11-23T05:37:46.848Z,102067.53
2023-11-23T05:40:15.860Z,102055.31
2023-11-23T05:42:54.064Z,102062.44
2023-11-23T05:45:28.663Z,102061.94
2023-11-23T05:47:55.960Z,102066.13
2023-11-23T05:50:23.094Z,102059.22
2023-11-23T05:52:50.286Z,102061.16
2023-11-23T05:55:17.510Z,102064.88
2023-11-23T05:57:44.588Z,102061.00
2023-11-23T06:00:12.306Z,102063.44
2023-11-23T06:02:40.173Z,102055.59
2023-11-23T06:05:07.685Z,102062.94
2023-11-23T06:07:35.145Z,102052.69
2023-11-23T06:10:05.871Z,102057.44
2023-11-23T06:12:33.180Z,102051.75
2023-11-23T06:15:01.014Z,102054.66
2023-11-23T06:17:30.198Z,102055.66
2023-11-23T06:19:57.537Z,102057.25
2023-11-23T06:22:24.562Z,102055.56
2023-11-23T06:24:52.015Z,102048.88
2023-11-23T06:27:19.641Z,102033.31
2023-11-23T06:29:46.846Z,102034.75
2023-11-23T06:32:14.517Z,102033.28
2023-11-23T06:34:42.163Z,102026.56
2023-11-23T06:37:09.319Z,102034.16
2023-11-23T06:39:37.993Z,102039.69
2023-11-23T06:42:05.391Z,102036.19
2023-11-23T06:44:32.749Z,102038.69
2023-11-23T06:47:01.527Z,102033.63
2023-11-23T06:49:29.433Z,102033.22
2023-11-23T06:51:56.590Z,102021.69
2023-11-23T06:54:23.791Z,102026.56
2023-11-23T06:56:50.939Z,102025.50
2023-11-23T06:59:19.847Z,102031.56
2023-11-23T07:01:47.049Z,102024.50
2023-11-23T07:04:15.273Z,102022.94
2023-11-23T07:06:43.021Z,102017.09
2023-11-23T07:09:11.761Z,102017.97
2023-11-23T07:11:39.896Z,102020.53
2023-11-23T07:14:07.389Z,102023.72
2023-11-23T07:16:34.889Z,102039.44
2023-11-23T07:19:02.060Z,102028.34
2023-11-23T07:21:29.765Z,102038.41
2023-11-23T07:23:57.569Z,102038.63
2023-11-23T07:26:25.245Z,102029.16
2023-11-23T07:28:52.319Z,102028.53
2023-11-23T07:31:19.653Z,102024.97
2023-11-23T07:33:46.836Z,102033.00
2023-11-23T07:36:14.942Z,102038.09
2023-11-23T07:38:45.008Z,102036.19
2023-11-23T07:41:13.079Z,102039.47
2023-11-23T07:43:40.311Z,102046.81
2023-11-23T07:46:07.495Z,102047.66
2023-11-23T07:48:34.672Z,102037.75
2023-11-23T07:51:02.551Z,102043.88
2023-11-23T07:53:31.812Z,102036.13
2023-11-23T07:55:59.737Z,102033.97
2023-11-23T07:58:27.192Z,102027.06
2023-11-23T08:00:54.576Z,102021.81
2023-11-23T08:03:22.551Z,102026.53
2023-11-23T08:05:49.865Z,102020.78
2023-11-23T08:08:16.963Z,102035.97
2023-11-23T08:10:44.368Z,102014.88
2023-11-23T08:13:11.697Z,102029.94
2023-11-23T08:15:38.839Z,102029.59
2023-11-23T08:18:08.353Z,102032.59
2023-11-23T08:20:38.133Z,102021.22
2023-11-23T08:23:06.349Z,102034.53
2023-11-23T08:25:33.563Z,102026.78
2023-11-23T08:28:02.225Z,102040.16
2023-11-23T08:30:29.648Z,102031.06
2023-11-23T08:32:57.663Z,102022.56
2023-11-23T08:35:25.288Z,102007.63
2023-11-23T08:37:52.344Z,101989.63
2023-11-23T08:40:19.469Z,101979.22
2023-11-23T08:42:46.595Z,102002.56
2023-11-23T08:45:14.390Z,102007.41
2023-11-23T08:47:41.509Z,101991.34
2023-11-23T08:50:10.305Z,102003.28
2023-11-23T08:52:39.105Z,101986.66
2023-11-23T08:55:07.275Z,101975.06
2023-11-23T08:57:34.866Z,101955.59
2023-11-23T09:00:03.188Z,101942.16
2023-11-23T09:02:30.493Z,101955.69
2023-11-23T09:04:58.393Z,102002.63
2023-11-23T09:07:25.529Z,101985.88
2023-11-23T09:09:52.668Z,101995.25
2023-11-23T09:12:19.795Z,101984.78
2023-11-23T09:14:49.740Z,101987.38
2023-11-23T09:17:17.839Z,101978.63
2023-11-23T09:19:45.993Z,101962.34
2023-11-23T09:22:13.493Z,101965.31
2023-11-23T09:24:40.811Z,101963.88
2023-11-23T09:27:08.026Z,101943.19
2023-11-23T09:29:36.142Z,101941.22
2023-11-23T09:32:04.281Z,101931.91
2023-11-23T09:34:31.703Z,101923.03
2023-11-23T09:36:59.647Z,101918.19
2023-11-23T09:39:27.597Z,101929.78
2023-11-23T09:41:58.704Z,101929.66
2023-11-23T09:44:27.637Z,101933.38
2023-11-23T09:46:57.433Z,101929.44
2023-11-23T09:49:25.871Z,101912.41
2023-11-23T09:51:56.299Z,101909.28
2023-11-23T09:54:27.673Z,101892.09
2023-11-23T09:56:55.783Z,101889.50
2023-11-23T09:59:24.924Z,101898.31
2023-11-23T10:01:55.922Z,101892.28
2023-11-23T10:04:23.517Z,101896.50
2023-11-23T10:06:51.333Z,101915.94
2023-11-23T10:09:18.892Z,101888.06
2023-11-23T10:11:47.983Z,101898.84
2023-11-23T10:14:16.980Z,101897.78
2023-11-23T10:16:44.302Z,101897.63
2023-11-23T10:19:24.071Z,101897.69
2023-11-23T10:21:56.090Z,101883.91
2023-11-23T10:24:25.162Z,101898.38
2023-11-23T10:26:53.791Z,101897.63
2023-11-23T10:29:25.131Z,101890.06
2023-11-23T10:31:52.262Z,101880.56
2023-11-23T10:34:20.094Z,101853.78
2023-11-23T10:36:49.510Z,101855.66
2023-11-23T10:39:19.853Z,101859.34
2023-11-23T10:41:48.487Z,101858.63
2023-11-23T10:44:16.634Z,101837.88
2023-11-23T10:46:45.486Z,101848.38
2023-11-23T10:49:14.818Z,101845.78
2023-11-23T10:51:44.282Z,101827.56
2023-11-23T10:54:11.408Z,101821.63
2023-11-23T10:56:41.127Z,101819.88
2023-11-23T10:59:11.823Z,101807.06
2023-11-23T11:01:39.798Z,101829.53
2023-11-23T11:04:07.020Z,101808.81
2023-11-23T11:06:41.600Z,101808.88
2023-11-23T11:09:15.820Z,101799.31
2023-11-23T11:11:48.741Z,101811.41
2023-11-23T11:14:17.492Z,101813.25
2023-11-23T11:16:44.744Z,101799.41
2023-11-23T11:19:14.855Z,101796.78
2023-11-23T11:21:45.672Z,101783.63
2023-11-23T11:24:23.097Z,101796.03
2023-11-23T11:26:51.258Z,101792.25
2023-11-23T11:29:19.164Z,101778.22
2023-11-23T11:31:49.560Z,101779.28
2023-11-23T11:34:21.397Z,101785.38
2023-11-23T11:37:00.734Z,101768.81
2023-11-23T11:39:38.241Z,101776.44
2023-11-23T11:42:06.559Z,101791.41
2023-11-23T11:44:43.092Z,101774.16
2023-11-23T11:47:11.896Z,101766.00
2023-11-23T11:49:38.941Z,101762.69
2023-11-23T11:52:14.126Z,101762.34
2023-11-23T11:54:41.599Z,101765.84
2023-11-23T11:57:08.845Z,101769.25
2023-11-23T11:59:37.560Z,101778.78
2023-11-23T12:02:06.368Z,101767.78
2023-11-23T12:04:35.597Z,101763.56
2023-11-23T12:07:02.826Z,101753.44
2023-11-23T12:09:34.936Z,101746.44
2023-11-23T12:12:11.453Z,101739.63
2023-11-23T12:14:38.881Z,101730.72
2023-11-23T12:17:14.048Z,101727.22
2023-11-23T12:19:54.820Z,101710.63
2023-11-23T12:22:25.385Z,101713.91
2023-11-23T12:24:53.380Z,101704.59
2023-11-23T12:27:23.839Z,101695.16
2023-11-23T12:29:51.037Z,101710.63
2023-11-23T12:32:18.469Z,101680.84
2023-11-23T12:34:45.652Z,101678.47
2023-11-23T12:37:13.028Z,101650.56
2023-11-23T12:39:40.373Z,101675.69
2023-11-23T12:42:07.620Z,101666.91
2023-11-23T12:44:36.548Z,101684.25
2023-11-23T12:47:04.592Z,101658.31
2023-11-23T12:49:31.716Z,101660.16
2023-11-23T12:52:02.073Z,101680.84
2023-11-23T12:54:31.707Z,101661.84
2023-11-23T12:57:00.932Z,101673.81
2023-11-23T12:59:28.574Z,101669.50
2023-11-23T13:02:01.066Z,101679.91
2023-11-23T13:04:30.944Z,101673.84
2023-11-23T13:06:59.725Z,101671.09
2023-11-23T13:09:28.743Z,101667.38
2023-11-23T13:11:58.435Z,101673.50
2023-11-23T13:14:25.552Z,101667.41
2023-11-23T13:16:53.728Z,101690.63
2023-11-23T13:19:30.056Z,101673.34
2023-11-23T13:22:05.410Z,101646.47
2023-11-23T13:24:33.665Z,101659.69
2023-11-23T13:27:02.445Z,101636.97
2023-11-23T13:29:29.823Z,101636.97
2023-11-23T13:31:59.721Z,101658.00
2023-11-23T13:34:27.462Z,101639.34
2023-11-23T13:36:55.961Z,101632.53
2023-11-23T13:39:23.541Z,101637.91
2023-11-23T13:41:50.870Z,101628.41
2023-11-23T13:44:19.139Z,101609.78
2023-11-23T13:46:46.412Z,101625.47
2023-11-23T13:49:14.918Z,101619.38
2023-11-23T13:51:42.160Z,101617.59
2023-11-23T13:54:10.754Z,101640.16
2023-11-23T13:56:40.650Z,101621.53
2023-11-23T13:59:10.257Z,101614.00
2023-11-23T14:01:38.242Z,101600.13
2023-11-23T14:04:06.003Z,101592.31
2023-11-23T14:06:33.487Z,101594.19
2023-11-23T14:09:02.719Z,101585.38
2023-11-23T14:11:29.818Z,101590.50
2023-11-23T14:13:57.400Z,101593.94
2023-11-23T14:16:24.569Z,101593.19
2023-11-23T14:18:51.806Z,101587.06
2023-11-23T14:21:19.098Z,101567.03
2023-11-23T14:23:50.116Z,101557.25
2023-11-23T14:26:20.743Z,101534.00
2023-11-23T14:28:51.592Z,101519.22
2023-11-23T14:31:20.792Z,101502.72
2023-11-23T14:33:48.165Z,101504.66
2023-11-23T14:36:15.913Z,101500.56
2023-11-23T14:38:43.969Z,101525.81
2023-11-23T14:41:14.701Z,101530.78
2023-11-23T14:43:41.889Z,101525.84
2023-11-23T14:46:09.084Z,101533.41
2023-11-23T14:48:36.360Z,101535.25
2023-11-23T14:51:03.676Z,101521.41
2023-11-23T14:53:30.886Z,101537.78
2023-11-23T14:56:01.469Z,101544.75
2023-11-23T14:58:29.349Z,101535.13
2023-11-23T15:00:57.853Z,101529.19
2023-11-23T15:03:25.351Z,101524.91
2023-11-23T15:05:53.804Z,101534.25
2023-11-23T15:08:21.733Z,101525.59
2023-11-23T15:10:50.732Z,101516.19
2023-11-23T15:13:23.304Z,101523.88
2023-11-23T15:15:57.753Z,101538.63
2023-11-23T15:18:25.304Z,101532.41
2023-11-23T15:20:52.566Z,101530.72
2023-11-23T15:23:21.523Z,101541.75
2023-11-23T15:25:51.875Z,101537.56
2023-11-23T15:28:21.016Z,101531.50
2023-11-23T15:30:48.442Z,101545.44
2023-11-23T15:33:17.601Z,101547.84
2023-11-23T15:35:45.171Z,101532.19
2023-11-23T15:38:12.360Z,101524.63
2023-11-23T15:40:39.520Z,101529.72
2023-11-23T15:43:06.680Z,101515.13
2023-11-23T15:45:33.836Z,101529.97
2023-11-23T15:48:01.101Z,101533.00
2023-11-23T15:50:31.083Z,101522.84
2023-11-23T15:52:59.715Z,101518.28
2023-11-23T15:55:27.191Z,101533.84
2023-11-23T15:57:54.927Z,101517.63
2023-11-23T16:00:25.578Z,101516.63
2023-11-23T16:02:55.646Z,101494.88
2023-11-23T16:05:31.392Z,101499.88
2023-11-23T16:07:59.435Z,101497.50
2023-11-23T16:10:27.994Z,101495.69
2023-11-23T16:12:55.222Z,101498.28
2023-11-23T16:15:22.982Z,101491.31
2023-11-23T16:17:51.793Z,101484.44
2023-11-23T16:20:22.396Z,101478.25
2023-11-23T16:22:50.600Z,101476.56
2023-11-23T16:25:17.940Z,101470.56
2023-11-23T16:27:46.173Z,101468.75
2023-11-23T16:30:15.196Z,101463.59
2023-11-23T16:32:43.727Z,101451.59
2023-11-23T16:35:14.276Z,101443.81
2023-11-23T16:37:41.496Z,101443.72
2023-11-23T16:40:13.434Z,101438.53
2023-11-23T16:42:42.488Z,101434.41
2023-11-23T16:45:11.209Z,101418.78
2023-11-23T16:47:39.754Z,101432.78
2023-11-23T16:50:10.429Z,101437.16
2023-11-23T16:52:40.574Z,101437.22
2023-11-23T16:55:09.476Z,101438.03
2023-11-23T16:57:37.188Z,101440.53
2023-11-23T17:00:05.249Z,101426.66
2023-11-23T17:02:32.559Z,101422.38
2023-11-23T17:05:01.475Z,101425.03
2023-11-23T17:07:29.380Z,101419.75
2023-11-23T17:09:56.941Z,101428.41
2023-11-23T17:12:24.410Z,101409.38
2023-11-23T17:14:53.576Z,101411.22
2023-11-23T17:17:20.749Z,101406.06
2023-11-23T17:19:47.974Z,101411.13
2023-11-23T17:22:15.122Z,101398.94
2023-11-23T17:24:42.466Z,101387.91
2023-11-23T17:27:09.594Z,101389.66
2023-11-23T17:29:37.052Z,101390.53
2023-11-23T17:32:06.303Z,101405.22
2023-11-23T17:34:33.760Z,101381.78
2023-11-23T17:37:01.374Z,101392.06
2023-11-23T17:39:31.095Z,101385.19
2023-11-23T17:41:59.721Z,101387.75
2023-11-23T17:44:28.190Z,101396.31
2023-11-23T17:46:55.398Z,101375.63
2023-11-23T17:49:22.771Z,101384.31
2023-11-23T17:51:50.374Z,101383.44
2023-11-23T17:54:17.637Z,101368.66
2023-11-23T17:56:44.886Z,101392.78
2023-11-23T17:59:25.896Z,101392.91
2023-11-23T18:01:59.729Z,101387.75
2023-11-23T18:04:27.318Z,101380.88
2023-11-23T18:06:55.540Z,101374.78
2023-11-23T18:09:22.876Z,101380.88
2023-11-23T18:11:50.440Z,101378.22
2023-11-23T18:14:17.688Z,101360.97
2023-11-23T18:16:46.239Z,101354.84
2023-11-23T18:19:14.002Z,101359.00
2023-11-23T18:21:41.552Z,101345.13
2023-11-23T18:24:09.789Z,101351.84
2023-11-23T18:26:37.403Z,101350.09
2023-11-23T18:29:06.677Z,101339.72
2023-11-23T18:31:34.371Z,101339.63
2023-11-23T18:34:02.486Z,101333.50
2023-11-23T18:36:29.610Z,101321.41
2023-11-23T18:38:57.081Z,101330.16
2023-11-23T18:41:25.315Z,101324.03
2023-11-23T18:43:52.552Z,101318.81
2023-11-23T18:46:19.785Z,101330.06
2023-11-23T18:48:48.015Z,101325.84
2023-11-23T18:51:15.259Z,101330.91
2023-11-23T18:53:42.389Z,101317.84
2023-11-23T18:56:09.558Z,101328.03
2023-11-23T18:58:37.272Z,101337.44
2023-11-23T19:01:05.700Z,101322.06
2023-11-23T19:03:32.940Z,101329.03
2023-11-23T19:06:01.511Z,101330.66
2023-11-23T19:08:29.309Z,101323.47
2023-11-23T19:10:57.117Z,101327.81
2023-11-23T19:13:29.163Z,101337.16
2023-11-23T19:15:58.134Z,101312.03
2023-11-23T19:18:26.103Z,101311.41
2023-11-23T19:20:53.739Z,101308.03
2023-11-23T19:23:21.663Z,101296.84
2023-11-23T19:25:50.173Z,101310.63
2023-11-23T19:28:17.773Z,101299.25
2023-11-23T19:30:45.185Z,101290.06
2023-11-23T19:33:13.227Z,101289.22
2023-11-23T19:35:40.691Z,101275.31
2023-11-23T19:38:08.267Z,101261.75
2023-11-23T19:40:36.265Z,101272.91
2023-11-23T19:43:03.953Z,101272.00
2023-11-23T19:45:31.363Z,101270.09
2023-11-23T19:47:59.802Z,101274.47
2023-11-23T19:50:28.135Z,101266.72
2023-11-23T19:52:57.207Z,101265.91
2023-11-23T19:55:24.286Z,101269.88
2023-11-23T19:57:51.624Z,101286.38
2023-11-23T20:00:19.041Z,101301.16
2023-11-23T20:02:46.425Z,101308.75
2023-11-23T20:05:14.219Z,101298.16
2023-11-23T20:07:41.270Z,101327.91
2023-11-23T20:10:08.930Z,101323.25
2023-11-23T20:12:37.268Z,101326.03
2023-11-23T20:15:05.025Z,101310.47
2023-11-23T20:17:32.295Z,101316.53
2023-11-23T20:19:59.640Z,101312.34
2023-11-23T20:22:27.272Z,101319.22
2023-11-23T20:24:54.573Z,101301.28
2023-11-23T20:27:21.704Z,101292.63
2023-11-23T20:29:49.062Z,101290.78
2023-11-23T20:32:16.196Z,101290.97
2023-11-23T20:34:45.172Z,101293.56
2023-11-23T20:37:12.414Z,101286.97
2023-11-23T20:39:39.996Z,101279.94
2023-11-23T20:42:07.796Z,101282.41
2023-11-23T20:44:35.066Z,101236.22
2023-11-23T20:47:02.164Z,101279.66
2023-11-23T20:49:29.321Z,101267.97
2023-11-23T20:51:56.578Z,101271.31
2023-11-23T20:54:23.793Z,101286.88
2023-11-23T20:56:56.135Z,101285.09
2023-11-23T20:59:24.277Z,101276.28
2023-11-23T21:01:52.999Z,101279.06
2023-11-23T21:04:26.093Z,101271.97
2023-11-23T21:07:01.571Z,101285.13
2023-11-23T21:09:30.400Z,101288.28
2023-11-23T21:12:02.917Z,101283.34
2023-11-23T21:14:30.367Z,101291.34
2023-11-23T21:16:59.693Z,101291.91
2023-11-23T21:19:27.167Z,101289.38
2023-11-23T21:21:55.318Z,101294.63
2023-11-23T21:24:22.418Z,101289.38
2023-11-23T21:26:49.502Z,101294.19
2023-11-23T21:29:16.534Z,101290.31
2023-11-23T21:31:43.855Z,101297.75
2023-11-23T21:34:11.119Z,101284.94
2023-11-23T21:36:41.451Z,101295.94
2023-11-23T21:39:13.203Z,101298.75
2023-11-23T21:41:40.561Z,101287.47
2023-11-23T21:44:07.632Z,101288.09
2023-11-23T21:46:35.370Z,101293.38
2023-11-23T21:49:02.556Z,101297.66
2023-11-23T21:51:29.818Z,101296.72
2023-11-23T21:53:58.244Z,101305.38
2023-11-23T21:56:25.799Z,101294.72
2023-11-23T21:58:52.890Z,101307.78
2023-11-23T22:01:20.336Z,101297.41
2023-11-23T22:03:50.580Z,101298.78
2023-11-23T22:06:18.963Z,101299.47
2023-11-23T22:08:46.139Z,101304.91
2023-11-23T22:11:14.130Z,101301.47
2023-11-23T22:13:41.529Z,101288.34
2023-11-23T22:16:08.637Z,101287.28
2023-11-23T22:18:36.271Z,101315.00
2023-11-23T22:21:05.464Z,101308.25
2023-11-23T22:23:33.617Z,101301.78
2023-11-23T22:26:01.994Z,101315.38
2023-11-23T22:28:29.804Z,101312.84
2023-11-23T22:30:58.199Z,101304.03
2023-11-23T22:33:26.366Z,101296.16
2023-11-23T22:35:53.572Z,101302.22
2023-11-23T22:38:20.960Z,101310.78
2023-11-23T22:40:50.972Z,101315.41
2023-11-23T22:43:18.275Z,101305.09
2023-11-23T22:45:46.344Z,101289.16
2023-11-23T22:48:13.520Z,101301.97
2023-11-23T22:50:40.873Z,101300.00
2023-11-23T22:53:08.136Z,101288.81
2023-11-23T22:55:35.323Z,101279.66
2023-11-23T22:58:02.383Z,101283.88
2023-11-23T23:00:36.999Z,101298.88
2023-11-23T23:03:04.670Z,101321.59
2023-11-23T23:05:31.982Z,101333.44
2023-11-23T23:07:59.699Z,101338.31
2023-11-23T23:10:28.678Z,101329.19
2023-11-23T23:12:56.622Z,101341.75
2023-11-23T23:15:25.480Z,101368.09
2023-11-23T23:17:53.231Z,101354.16
2023-11-23T23:20:20.557Z,101370.66
2023-11-23T23:22:47.762Z,101377.28
2023-11-23T23:25:15.338Z,101380.78
2023-11-23T23:27:44.213Z,101379.63
2023-11-23T23:30:12.424Z,101385.94
2023-11-23T23:32:41.234Z,101382.19
2023-11-23T23:35:10.553Z,101381.19
2023-11-23T23:37:39.058Z,101389.00
2023-11-23T23:40:07.316Z,101334.22
2023-11-23T23:42:34.738Z,101328.78
2023-11-23T23:45:02.141Z,101336.28
2023-11-23T23:47:29.331Z,101337.66
2023-11-23T23:49:58.186Z,101349.38
2023-11-23T23:52:25.441Z,101341.66
2023-11-23T23:54:52.764Z,101350.03
2023-11-23T23:57:19.947Z,101350.28
2023-11-23T23:59:47.244Z,101354.94
